This is the latest recevied weather packets stored in our database for station/object K5RWS. If no packets are shown the sender has not sent any weather packets the latest 1 day(s).
| Time | Temp. | Humidity | Pressure | Rain* | Wind** | Luminosity | Snow |
|---|---|---|---|---|---|---|---|
| 1778024125 | 17.22° C | 39% | 1011.5 hPa | 0 mm | 0.45 m/s, 212° | 261 W/m² | - |
| 1778023822 | 17.78° C | 39% | 1012.1 hPa | 0 mm | 2.68 m/s, 226° | 292 W/m² | - |
| 1778023520 | 17.22° C | 38% | 1011.9 hPa | 0 mm | 1.34 m/s, 238° | 340 W/m² | - |
| 1778023217 | 16.67° C | 40% | 1011.5 hPa | 0 mm | 1.79 m/s, 261° | 305 W/m² | - |
| 1778022914 | 16.67° C | 42% | 1011.9 hPa | 0 mm | 1.79 m/s, 305° | 336 W/m² | - |
| 1778022613 | 17.22° C | 42% | 1012.1 hPa | 0 mm | 2.24 m/s, 274° | 360 W/m² | - |
| 1778022309 | 16.11° C | 47% | 1012.2 hPa | 0 mm | 2.68 m/s, 310° | 366 W/m² | - |
| 1778022006 | 16.11° C | 47% | 1012 hPa | 0 mm | 2.68 m/s, 279° | 375 W/m² | - |
| 1778021703 | 16.11° C | 50% | 1012.2 hPa | 0 mm | 4.47 m/s, 271° | 364 W/m² | - |
| 1778021399 | 15.56° C | 51% | 1012.3 hPa | 0 mm | 3.58 m/s, 289° | 328 W/m² | - |
| 1778021096 | 15.56° C | 53% | 1012.5 hPa | 0 mm | 4.47 m/s, 276° | 395 W/m² | - |
| 1778020793 | 15.56° C | 49% | 1012.5 hPa | 0 mm | 2.68 m/s, 289° | 413 W/m² | - |
| 1778020490 | 16.11° C | 50% | 1012.6 hPa | 0 mm | 5.81 m/s, 273° | 437 W/m² | - |
| 1778020186 | 16.67° C | 47% | 1012.7 hPa | 0 mm | 5.36 m/s, 267° | 537 W/m² | - |
| 1778019882 | 16.67° C | 45% | 1012.8 hPa | 0 mm | 1.34 m/s, 224° | 299 W/m² | - |
| 1778019578 | 17.22° C | 43% | 1012.6 hPa | 0 mm | 3.13 m/s, 280° | 230 W/m² | - |
| 1778019276 | 17.22° C | 42% | 1012.7 hPa | 0 mm | 4.02 m/s, 211° | 316 W/m² | - |
| 1778018973 | 17.78° C | 42% | 1012.7 hPa | 0 mm | 3.13 m/s, 223° | 603 W/m² | - |
| 1778018670 | 17.22° C | 42% | 1012.6 hPa | 0 mm | 2.68 m/s, 230° | 644 W/m² | - |
| 1778018367 | 16.67° C | 44% | 1012.6 hPa | 0 mm | 0.89 m/s, 184° | 366 W/m² | - |
| 1778018065 | 17.22° C | 43% | 1012.9 hPa | 0 mm | 3.13 m/s, 233° | 259 W/m² | - |
| 1778017763 | 16.67° C | 44% | 1013.1 hPa | 0 mm | 3.13 m/s, 226° | 331 W/m² | - |
| 1778017461 | 16.67° C | 45% | 1012.8 hPa | 0 mm | 2.68 m/s, 250° | 294 W/m² | - |
| 1778017158 | 16.67° C | 46% | 1013.2 hPa | 0 mm | 1.34 m/s, 204° | 310 W/m² | - |
| 1778016855 | 16.67° C | 45% | 1013.2 hPa | 0 mm | 0.89 m/s, 214° | 239 W/m² | - |
* Rain latest hour (hover to see other rain measurements)
** Current wind speed in m/s (hover to see current wind gust speed)